sensor_id;sensor_type;location;lat;lon;timestamp;temperature;humidity
20831;DHT22;10576;53.556;9.868;2022-08-11T00:01:49;17.30;99.90
20831;DHT22;10576;53.556;9.868;2022-08-11T00:04:17;17.30;99.90
20831;DHT22;10576;53.556;9.868;2022-08-11T00:06:44;17.20;99.90
20831;DHT22;10576;53.556;9.868;2022-08-11T00:09:16;17.20;99.90
20831;DHT22;10576;53.556;9.868;2022-08-11T00:11:52;17.20;99.90
20831;DHT22;10576;53.556;9.868;2022-08-11T00:14:21;17.20;99.90
20831;DHT22;10576;53.556;9.868;2022-08-11T00:17:05;17.10;99.90
20831;DHT22;10576;53.556;9.868;2022-08-11T00:19:34;17.10;99.90
20831;DHT22;10576;53.556;9.868;2022-08-11T00:22:02;17.00;99.90
20831;DHT22;10576;53.556;9.868;2022-08-11T00:24:33;17.00;99.90
20831;DHT22;10576;53.556;9.868;2022-08-11T00:26:59;17.00;99.90
20831;DHT22;10576;53.556;9.868;2022-08-11T00:29:25;16.90;99.90
20831;DHT22;10576;53.556;9.868;2022-08-11T00:31:53;16.90;99.90
20831;DHT22;10576;53.556;9.868;2022-08-11T00:34:27;16.90;99.90
20831;DHT22;10576;53.556;9.868;2022-08-11T00:37:06;16.80;99.90
20831;DHT22;10576;53.556;9.868;2022-08-11T00:39:35;16.80;99.90
20831;DHT22;10576;53.556;9.868;2022-08-11T00:50:48;16.60;99.90
20831;DHT22;10576;53.556;9.868;2022-08-11T00:56:16;16.50;99.90
20831;DHT22;10576;53.556;9.868;2022-08-11T01:02:08;16.50;99.90
20831;DHT22;10576;53.556;9.868;2022-08-11T01:10:40;16.30;99.90
20831;DHT22;10576;53.556;9.868;2022-08-11T01:13:44;16.30;99.90
20831;DHT22;10576;53.556;9.868;2022-08-11T01:28:23;16.20;99.90
20831;DHT22;10576;53.556;9.868;2022-08-11T01:40:00;16.10;99.90
20831;DHT22;10576;53.556;9.868;2022-08-11T01:45:52;16.00;99.90
20831;DHT22;10576;53.556;9.868;2022-08-11T01:53:53;16.00;99.90
20831;DHT22;10576;53.556;9.868;2022-08-11T01:59:19;16.00;99.90
20831;DHT22;10576;53.556;9.868;2022-08-11T02:04:58;15.90;99.90
20831;DHT22;10576;53.556;9.868;2022-08-11T02:07:38;15.80;99.90
20831;DHT22;10576;53.556;9.868;2022-08-11T02:10:30;15.80;99.90
20831;DHT22;10576;53.556;9.868;2022-08-11T02:19:34;15.80;99.90
20831;DHT22;10576;53.556;9.868;2022-08-11T02:22:38;15.80;99.90
20831;DHT22;10576;53.556;9.868;2022-08-11T02:33:50;15.70;99.90
20831;DHT22;10576;53.556;9.868;2022-08-11T02:36:23;15.60;99.90
20831;DHT22;10576;53.556;9.868;2022-08-11T02:39:01;15.60;99.90
20831;DHT22;10576;53.556;9.868;2022-08-11T02:50:34;15.60;99.90
20831;DHT22;10576;53.556;9.868;2022-08-11T02:53:16;15.50;99.90
20831;DHT22;10576;53.556;9.868;2022-08-11T02:58:40;15.40;99.90
20831;DHT22;10576;53.556;9.868;2022-08-11T03:01:15;15.40;99.90
20831;DHT22;10576;53.556;9.868;2022-08-11T03:04:07;15.40;99.90
20831;DHT22;10576;53.556;9.868;2022-08-11T03:06:49;15.40;99.90
20831;DHT22;10576;53.556;9.868;2022-08-11T03:12:43;15.30;99.90
20831;DHT22;10576;53.556;9.868;2022-08-11T03:15:11;15.20;99.90
20831;DHT22;10576;53.556;9.868;2022-08-11T03:18:14;15.20;99.90
20831;DHT22;10576;53.556;9.868;2022-08-11T03:21:19;15.10;99.90
20831;DHT22;10576;53.556;9.868;2022-08-11T03:24:07;15.20;99.90
20831;DHT22;10576;53.556;9.868;2022-08-11T03:34:47;15.10;99.90
20831;DHT22;10576;53.556;9.868;2022-08-11T03:51:31;14.90;99.90
20831;DHT22;10576;53.556;9.868;2022-08-11T04:14:24;14.90;99.90
20831;DHT22;10576;53.556;9.868;2022-08-11T04:17:38;14.80;99.90
20831;DHT22;10576;53.556;9.868;2022-08-11T04:33:57;14.80;99.90
20831;DHT22;10576;53.556;9.868;2022-08-11T04:45:59;15.00;99.90
20831;DHT22;10576;53.556;9.868;2022-08-11T04:51:54;15.10;99.90
20831;DHT22;10576;53.556;9.868;2022-08-11T05:07:11;15.50;99.90
20831;DHT22;10576;53.556;9.868;2022-08-11T05:15:02;15.70;99.90
20831;DHT22;10576;53.556;9.868;2022-08-11T05:21:11;15.90;99.90
20831;DHT22;10576;53.556;9.868;2022-08-11T05:24:02;16.00;99.90
20831;DHT22;10576;53.556;9.868;2022-08-11T05:26:48;16.10;99.90
20831;DHT22;10576;53.556;9.868;2022-08-11T05:29:41;16.20;99.90
20831;DHT22;10576;53.556;9.868;2022-08-11T05:32:32;16.20;99.90
20831;DHT22;10576;53.556;9.868;2022-08-11T05:35:28;16.30;99.90
20831;DHT22;10576;53.556;9.868;2022-08-11T05:37:55;16.40;99.90
20831;DHT22;10576;53.556;9.868;2022-08-11T05:40:47;16.50;99.90
20831;DHT22;10576;53.556;9.868;2022-08-11T05:43:33;16.70;99.90
20831;DHT22;10576;53.556;9.868;2022-08-11T05:46:23;17.20;99.90
20831;DHT22;10576;53.556;9.868;2022-08-11T05:49:10;17.30;99.90
20831;DHT22;10576;53.556;9.868;2022-08-11T05:51:55;17.70;99.90
20831;DHT22;10576;53.556;9.868;2022-08-11T05:54:40;18.10;99.90
20831;DHT22;10576;53.556;9.868;2022-08-11T05:57:35;18.40;99.90
20831;DHT22;10576;53.556;9.868;2022-08-11T06:00:06;18.50;99.90
20831;DHT22;10576;53.556;9.868;2022-08-11T06:02:43;18.60;99.90
20831;DHT22;10576;53.556;9.868;2022-08-11T06:05:11;18.60;99.90
20831;DHT22;10576;53.556;9.868;2022-08-11T06:07:37;18.70;99.90
20831;DHT22;10576;53.556;9.868;2022-08-11T06:10:04;18.70;99.90
20831;DHT22;10576;53.556;9.868;2022-08-11T06:12:32;18.70;99.90
20831;DHT22;10576;53.556;9.868;2022-08-11T06:15:04;18.80;99.90
20831;DHT22;10576;53.556;9.868;2022-08-11T06:17:34;18.90;99.90
20831;DHT22;10576;53.556;9.868;2022-08-11T06:20:08;18.90;99.90
20831;DHT22;10576;53.556;9.868;2022-08-11T06:22:55;19.00;99.90
20831;DHT22;10576;53.556;9.868;2022-08-11T06:25:22;19.00;99.90
20831;DHT22;10576;53.556;9.868;2022-08-11T06:27:55;19.10;99.90
20831;DHT22;10576;53.556;9.868;2022-08-11T06:30:36;19.10;99.90
20831;DHT22;10576;53.556;9.868;2022-08-11T06:38:45;19.30;99.90
20831;DHT22;10576;53.556;9.868;2022-08-11T06:41:34;19.40;99.90
20831;DHT22;10576;53.556;9.868;2022-08-11T06:46:55;19.60;99.90
20831;DHT22;10576;53.556;9.868;2022-08-11T06:49:36;19.60;99.90
20831;DHT22;10576;53.556;9.868;2022-08-11T06:52:31;19.70;99.90
20831;DHT22;10576;53.556;9.868;2022-08-11T06:55:04;19.80;99.90
20831;DHT22;10576;53.556;9.868;2022-08-11T06:57:40;19.80;99.90
20831;DHT22;10576;53.556;9.868;2022-08-11T07:00:31;19.80;99.90
20831;DHT22;10576;53.556;9.868;2022-08-11T07:03:07;19.90;99.90
20831;DHT22;10576;53.556;9.868;2022-08-11T07:14:58;20.10;99.90
20831;DHT22;10576;53.556;9.868;2022-08-11T07:17:51;20.20;99.90
20831;DHT22;10576;53.556;9.868;2022-08-11T07:20:40;20.30;99.90
20831;DHT22;10576;53.556;9.868;2022-08-11T07:23:25;20.40;99.90
20831;DHT22;10576;53.556;9.868;2022-08-11T07:26:12;20.50;99.90
20831;DHT22;10576;53.556;9.868;2022-08-11T07:28:58;20.50;99.90
20831;DHT22;10576;53.556;9.868;2022-08-11T07:31:41;20.70;99.90
20831;DHT22;10576;53.556;9.868;2022-08-11T07:34:27;20.80;99.90
20831;DHT22;10576;53.556;9.868;2022-08-11T07:36:59;20.80;99.90
20831;DHT22;10576;53.556;9.868;2022-08-11T07:39:31;20.90;99.90
20831;DHT22;10576;53.556;9.868;2022-08-11T07:41:59;21.00;99.90
20831;DHT22;10576;53.556;9.868;2022-08-11T07:44:29;21.10;99.90
20831;DHT22;10576;53.556;9.868;2022-08-11T07:46:55;21.30;99.90
20831;DHT22;10576;53.556;9.868;2022-08-11T07:49:43;21.40;99.90
20831;DHT22;10576;53.556;9.868;2022-08-11T07:52:29;21.80;99.90
20831;DHT22;10576;53.556;9.868;2022-08-11T07:55:11;21.90;99.90
20831;DHT22;10576;53.556;9.868;2022-08-11T07:57:37;22.30;99.90
20831;DHT22;10576;53.556;9.868;2022-08-11T08:00:21;22.50;99.90
20831;DHT22;10576;53.556;9.868;2022-08-11T08:03:06;22.90;99.90
20831;DHT22;10576;53.556;9.868;2022-08-11T08:05:51;23.40;99.90
20831;DHT22;10576;53.556;9.868;2022-08-11T08:08:39;23.40;99.90
20831;DHT22;10576;53.556;9.868;2022-08-11T08:11:25;24.00;99.90
20831;DHT22;10576;53.556;9.868;2022-08-11T08:14:10;24.50;99.90
20831;DHT22;10576;53.556;9.868;2022-08-11T08:16:56;25.20;99.90
20831;DHT22;10576;53.556;9.868;2022-08-11T08:19:42;25.50;99.90
20831;DHT22;10576;53.556;9.868;2022-08-11T08:22:14;25.70;99.90
20831;DHT22;10576;53.556;9.868;2022-08-11T08:24:41;26.00;99.90
20831;DHT22;10576;53.556;9.868;2022-08-11T08:27:08;26.00;99.90
20831;DHT22;10576;53.556;9.868;2022-08-11T08:29:37;26.40;99.90
20831;DHT22;10576;53.556;9.868;2022-08-11T08:32:22;26.40;99.90
20831;DHT22;10576;53.556;9.868;2022-08-11T08:34:51;26.80;99.90
20831;DHT22;10576;53.556;9.868;2022-08-11T08:37:21;26.90;99.90
20831;DHT22;10576;53.556;9.868;2022-08-11T08:39:48;26.90;99.90
20831;DHT22;10576;53.556;9.868;2022-08-11T08:42:20;26.90;99.90
20831;DHT22;10576;53.556;9.868;2022-08-11T08:44:51;27.30;99.90
20831;DHT22;10576;53.556;9.868;2022-08-11T08:47:19;27.20;99.90
20831;DHT22;10576;53.556;9.868;2022-08-11T08:49:49;27.30;99.90
20831;DHT22;10576;53.556;9.868;2022-08-11T08:52:19;27.30;99.90
20831;DHT22;10576;53.556;9.868;2022-08-11T08:54:49;27.50;99.90
20831;DHT22;10576;53.556;9.868;2022-08-11T08:57:16;27.90;99.90
20831;DHT22;10576;53.556;9.868;2022-08-11T08:59:46;27.90;99.90
20831;DHT22;10576;53.556;9.868;2022-08-11T09:02:13;28.00;99.90
20831;DHT22;10576;53.556;9.868;2022-08-11T09:04:40;27.70;99.90
20831;DHT22;10576;53.556;9.868;2022-08-11T09:07:11;27.90;99.90
20831;DHT22;10576;53.556;9.868;2022-08-11T09:09:44;28.10;99.90
20831;DHT22;10576;53.556;9.868;2022-08-11T09:12:11;28.30;99.90
20831;DHT22;10576;53.556;9.868;2022-08-11T09:14:40;28.30;99.90
20831;DHT22;10576;53.556;9.868;2022-08-11T09:17:26;28.20;99.90
20831;DHT22;10576;53.556;9.868;2022-08-11T09:20:10;28.40;99.90
20831;DHT22;10576;53.556;9.868;2022-08-11T09:22:38;28.40;99.90
20831;DHT22;10576;53.556;9.868;2022-08-11T09:25:26;28.60;99.90
20831;DHT22;10576;53.556;9.868;2022-08-11T09:28:12;28.70;99.90
20831;DHT22;10576;53.556;9.868;2022-08-11T09:30:41;28.90;99.90
20831;DHT22;10576;53.556;9.868;2022-08-11T09:33:09;28.50;99.90
20831;DHT22;10576;53.556;9.868;2022-08-11T09:35:38;28.50;99.90
20831;DHT22;10576;53.556;9.868;2022-08-11T09:38:10;28.70;99.90
20831;DHT22;10576;53.556;9.868;2022-08-11T09:40:56;28.90;99.90
20831;DHT22;10576;53.556;9.868;2022-08-11T09:43:23;29.00;99.90
20831;DHT22;10576;53.556;9.868;2022-08-11T09:46:08;29.10;99.90
20831;DHT22;10576;53.556;9.868;2022-08-11T09:48:44;29.20;99.90
20831;DHT22;10576;53.556;9.868;2022-08-11T09:51:12;29.10;99.90
20831;DHT22;10576;53.556;9.868;2022-08-11T09:53:41;29.10;99.90
20831;DHT22;10576;53.556;9.868;2022-08-11T09:56:12;28.90;99.90
20831;DHT22;10576;53.556;9.868;2022-08-11T09:58:58;29.20;99.90
20831;DHT22;10576;53.556;9.868;2022-08-11T10:01:29;29.40;99.90
20831;DHT22;10576;53.556;9.868;2022-08-11T10:04:04;29.50;99.90
20831;DHT22;10576;53.556;9.868;2022-08-11T10:06:34;29.50;99.90
20831;DHT22;10576;53.556;9.868;2022-08-11T10:09:22;29.40;99.90
20831;DHT22;10576;53.556;9.868;2022-08-11T10:11:48;29.50;99.90
20831;DHT22;10576;53.556;9.868;2022-08-11T10:14:16;29.50;99.90
20831;DHT22;10576;53.556;9.868;2022-08-11T10:17:06;29.70;99.90
20831;DHT22;10576;53.556;9.868;2022-08-11T10:19:34;29.60;99.90
20831;DHT22;10576;53.556;9.868;2022-08-11T10:22:05;29.80;99.90
20831;DHT22;10576;53.556;9.868;2022-08-11T10:24:50;29.80;99.90
20831;DHT22;10576;53.556;9.868;2022-08-11T10:27:35;29.90;99.90
20831;DHT22;10576;53.556;9.868;2022-08-11T10:30:03;30.20;99.90
20831;DHT22;10576;53.556;9.868;2022-08-11T10:32:49;30.20;99.90
20831;DHT22;10576;53.556;9.868;2022-08-11T10:35:34;30.30;99.90
20831;DHT22;10576;53.556;9.868;2022-08-11T10:38:00;30.20;99.90
20831;DHT22;10576;53.556;9.868;2022-08-11T10:40:27;30.20;99.90
20831;DHT22;10576;53.556;9.868;2022-08-11T10:42:56;30.40;99.90
20831;DHT22;10576;53.556;9.868;2022-08-11T10:45:34;30.30;99.90
20831;DHT22;10576;53.556;9.868;2022-08-11T10:48:24;30.50;99.90
20831;DHT22;10576;53.556;9.868;2022-08-11T10:50:51;30.60;99.90
20831;DHT22;10576;53.556;9.868;2022-08-11T10:53:40;30.80;99.90
20831;DHT22;10576;53.556;9.868;2022-08-11T10:56:28;30.90;99.90
20831;DHT22;10576;53.556;9.868;2022-08-11T10:59:13;30.80;99.90
20831;DHT22;10576;53.556;9.868;2022-08-11T11:01:45;30.70;99.90
20831;DHT22;10576;53.556;9.868;2022-08-11T11:04:22;31.00;99.90
20831;DHT22;10576;53.556;9.868;2022-08-11T11:09:38;31.10;99.90
20831;DHT22;10576;53.556;9.868;2022-08-11T11:12:08;31.00;99.90
20831;DHT22;10576;53.556;9.868;2022-08-11T11:14:54;31.10;99.90
20831;DHT22;10576;53.556;9.868;2022-08-11T11:17:42;31.00;99.90
20831;DHT22;10576;53.556;9.868;2022-08-11T11:37:15;31.10;99.30
20831;DHT22;10576;53.556;9.868;2022-08-11T11:39:42;31.10;99.90
20831;DHT22;10576;53.556;9.868;2022-08-11T11:42:09;31.10;98.20
20831;DHT22;10576;53.556;9.868;2022-08-11T11:44:39;31.00;99.90
20831;DHT22;10576;53.556;9.868;2022-08-11T11:47:07;31.10;99.90
20831;DHT22;10576;53.556;9.868;2022-08-11T11:49:36;31.00;99.90
20831;DHT22;10576;53.556;9.868;2022-08-11T11:52:06;30.90;99.90
20831;DHT22;10576;53.556;9.868;2022-08-11T11:54:33;30.90;99.10
20831;DHT22;10576;53.556;9.868;2022-08-11T11:57:02;30.80;97.80
20831;DHT22;10576;53.556;9.868;2022-08-11T11:59:49;31.00;97.90
20831;DHT22;10576;53.556;9.868;2022-08-11T12:02:35;30.90;99.00
20831;DHT22;10576;53.556;9.868;2022-08-11T12:05:01;31.00;98.70
20831;DHT22;10576;53.556;9.868;2022-08-11T12:07:28;31.00;97.90
20831;DHT22;10576;53.556;9.868;2022-08-11T12:10:14;31.00;98.00
20831;DHT22;10576;53.556;9.868;2022-08-11T12:12:40;31.30;98.40
20831;DHT22;10576;53.556;9.868;2022-08-11T12:15:25;31.20;96.40
20831;DHT22;10576;53.556;9.868;2022-08-11T12:17:51;30.90;96.90
20831;DHT22;10576;53.556;9.868;2022-08-11T12:20:17;30.80;98.80
20831;DHT22;10576;53.556;9.868;2022-08-11T12:22:46;30.90;98.00
20831;DHT22;10576;53.556;9.868;2022-08-11T12:25:31;31.10;98.40
20831;DHT22;10576;53.556;9.868;2022-08-11T12:28:17;31.20;97.40
20831;DHT22;10576;53.556;9.868;2022-08-11T12:30:43;31.10;97.00
20831;DHT22;10576;53.556;9.868;2022-08-11T12:33:12;31.10;96.20
20831;DHT22;10576;53.556;9.868;2022-08-11T12:35:38;30.90;95.80
20831;DHT22;10576;53.556;9.868;2022-08-11T12:38:05;31.00;95.80
20831;DHT22;10576;53.556;9.868;2022-08-11T12:40:31;31.00;95.30
20831;DHT22;10576;53.556;9.868;2022-08-11T12:43:18;31.10;95.00
20831;DHT22;10576;53.556;9.868;2022-08-11T12:46:13;31.00;95.60
20831;DHT22;10576;53.556;9.868;2022-08-11T12:48:45;31.10;96.20
20831;DHT22;10576;53.556;9.868;2022-08-11T12:51:37;31.00;94.30
20831;DHT22;10576;53.556;9.868;2022-08-11T12:54:27;30.90;94.00
20831;DHT22;10576;53.556;9.868;2022-08-11T12:57:00;30.90;95.50
20831;DHT22;10576;53.556;9.868;2022-08-11T12:59:46;31.10;95.40
20831;DHT22;10576;53.556;9.868;2022-08-11T13:02:31;31.10;94.90
20831;DHT22;10576;53.556;9.868;2022-08-11T13:05:17;30.70;94.20
20831;DHT22;10576;53.556;9.868;2022-08-11T13:07:44;30.90;95.60
20831;DHT22;10576;53.556;9.868;2022-08-11T13:10:13;31.00;96.70
20831;DHT22;10576;53.556;9.868;2022-08-11T13:12:40;31.00;94.50
20831;DHT22;10576;53.556;9.868;2022-08-11T13:15:24;30.80;94.70
20831;DHT22;10576;53.556;9.868;2022-08-11T13:17:52;30.80;93.90
20831;DHT22;10576;53.556;9.868;2022-08-11T13:20:21;30.60;93.10
20831;DHT22;10576;53.556;9.868;2022-08-11T13:22:50;30.60;95.50
20831;DHT22;10576;53.556;9.868;2022-08-11T13:25:19;30.60;93.40
20831;DHT22;10576;53.556;9.868;2022-08-11T13:27:47;30.50;93.60
20831;DHT22;10576;53.556;9.868;2022-08-11T13:30:14;30.50;93.50
20831;DHT22;10576;53.556;9.868;2022-08-11T13:33:00;30.50;92.80
20831;DHT22;10576;53.556;9.868;2022-08-11T13:35:27;30.50;94.00
20831;DHT22;10576;53.556;9.868;2022-08-11T13:37:53;30.60;94.70
20831;DHT22;10576;53.556;9.868;2022-08-11T13:40:21;30.60;94.90
20831;DHT22;10576;53.556;9.868;2022-08-11T13:42:50;30.60;93.60
20831;DHT22;10576;53.556;9.868;2022-08-11T13:45:17;30.50;93.90
20831;DHT22;10576;53.556;9.868;2022-08-11T13:47:43;30.40;92.60
20831;DHT22;10576;53.556;9.868;2022-08-11T13:50:10;30.10;93.30
20831;DHT22;10576;53.556;9.868;2022-08-11T13:52:38;30.20;94.10
20831;DHT22;10576;53.556;9.868;2022-08-11T13:55:07;30.10;93.00
20831;DHT22;10576;53.556;9.868;2022-08-11T13:57:35;30.10;93.90
20831;DHT22;10576;53.556;9.868;2022-08-11T14:00:06;30.10;92.60
20831;DHT22;10576;53.556;9.868;2022-08-11T14:02:42;29.90;92.50
20831;DHT22;10576;53.556;9.868;2022-08-11T14:05:28;29.90;94.00
20831;DHT22;10576;53.556;9.868;2022-08-11T14:08:01;29.90;94.00
20831;DHT22;10576;53.556;9.868;2022-08-11T14:10:30;29.90;93.80
20831;DHT22;10576;53.556;9.868;2022-08-11T14:12:59;29.80;92.20
20831;DHT22;10576;53.556;9.868;2022-08-11T14:15:46;29.70;93.70
20831;DHT22;10576;53.556;9.868;2022-08-11T14:20:42;29.50;93.60
20831;DHT22;10576;53.556;9.868;2022-08-11T14:23:31;29.40;92.60
20831;DHT22;10576;53.556;9.868;2022-08-11T14:25:57;29.30;93.60
20831;DHT22;10576;53.556;9.868;2022-08-11T14:28:42;29.40;92.40
20831;DHT22;10576;53.556;9.868;2022-08-11T14:31:08;29.30;93.00
20831;DHT22;10576;53.556;9.868;2022-08-11T14:33:35;29.30;93.60
20831;DHT22;10576;53.556;9.868;2022-08-11T14:36:02;29.20;93.50
20831;DHT22;10576;53.556;9.868;2022-08-11T14:38:34;29.20;93.70
20831;DHT22;10576;53.556;9.868;2022-08-11T14:41:01;29.20;93.30
20831;DHT22;10576;53.556;9.868;2022-08-11T14:43:46;29.10;93.50
20831;DHT22;10576;53.556;9.868;2022-08-11T14:46:32;29.10;93.80
20831;DHT22;10576;53.556;9.868;2022-08-11T14:49:17;29.00;94.30
20831;DHT22;10576;53.556;9.868;2022-08-11T14:51:44;28.80;93.70
20831;DHT22;10576;53.556;9.868;2022-08-11T14:54:11;28.90;94.40
20831;DHT22;10576;53.556;9.868;2022-08-11T14:56:56;28.90;93.70
20831;DHT22;10576;53.556;9.868;2022-08-11T14:59:23;28.80;94.90
20831;DHT22;10576;53.556;9.868;2022-08-11T15:01:49;28.80;94.30
20831;DHT22;10576;53.556;9.868;2022-08-11T15:04:34;28.70;94.10
20831;DHT22;10576;53.556;9.868;2022-08-11T15:07:00;28.60;94.90
20831;DHT22;10576;53.556;9.868;2022-08-11T15:09:26;28.60;94.60
20831;DHT22;10576;53.556;9.868;2022-08-11T15:11:52;28.50;94.80
20831;DHT22;10576;53.556;9.868;2022-08-11T15:14:33;28.50;93.40
20831;DHT22;10576;53.556;9.868;2022-08-11T15:17:18;28.40;93.50
20831;DHT22;10576;53.556;9.868;2022-08-11T15:19:44;28.40;93.90
20831;DHT22;10576;53.556;9.868;2022-08-11T15:22:29;28.30;94.70
20831;DHT22;10576;53.556;9.868;2022-08-11T15:25:14;28.20;93.80
20831;DHT22;10576;53.556;9.868;2022-08-11T15:27:41;28.10;95.50
20831;DHT22;10576;53.556;9.868;2022-08-11T15:30:27;28.10;94.50
20831;DHT22;10576;53.556;9.868;2022-08-11T15:33:14;28.10;94.40
20831;DHT22;10576;53.556;9.868;2022-08-11T15:36:02;28.20;94.60
20831;DHT22;10576;53.556;9.868;2022-08-11T15:41:39;28.20;95.40
20831;DHT22;10576;53.556;9.868;2022-08-11T15:44:28;28.10;96.30
20831;DHT22;10576;53.556;9.868;2022-08-11T15:47:28;27.90;95.00
20831;DHT22;10576;53.556;9.868;2022-08-11T15:49:58;27.90;95.30
20831;DHT22;10576;53.556;9.868;2022-08-11T15:52:30;27.90;95.20
20831;DHT22;10576;53.556;9.868;2022-08-11T15:54:58;27.90;94.90
20831;DHT22;10576;53.556;9.868;2022-08-11T15:57:28;27.80;95.80
20831;DHT22;10576;53.556;9.868;2022-08-11T16:00:14;27.80;95.70
20831;DHT22;10576;53.556;9.868;2022-08-11T16:03:00;27.80;96.90
20831;DHT22;10576;53.556;9.868;2022-08-11T16:05:47;27.70;98.00
20831;DHT22;10576;53.556;9.868;2022-08-11T16:08:16;27.60;97.90
20831;DHT22;10576;53.556;9.868;2022-08-11T16:10:44;27.60;98.10
20831;DHT22;10576;53.556;9.868;2022-08-11T16:13:11;27.60;97.90
20831;DHT22;10576;53.556;9.868;2022-08-11T16:15:44;27.50;98.90
20831;DHT22;10576;53.556;9.868;2022-08-11T16:18:34;27.50;97.60
20831;DHT22;10576;53.556;9.868;2022-08-11T16:21:16;27.50;98.50
20831;DHT22;10576;53.556;9.868;2022-08-11T16:23:45;27.50;99.20
20831;DHT22;10576;53.556;9.868;2022-08-11T16:26:13;27.40;99.20
20831;DHT22;10576;53.556;9.868;2022-08-11T16:28:41;27.30;99.10
20831;DHT22;10576;53.556;9.868;2022-08-11T16:31:09;27.20;99.10
20831;DHT22;10576;53.556;9.868;2022-08-11T16:33:39;27.20;99.30
20831;DHT22;10576;53.556;9.868;2022-08-11T16:36:09;27.20;99.10
20831;DHT22;10576;53.556;9.868;2022-08-11T16:38:55;27.10;99.80
20831;DHT22;10576;53.556;9.868;2022-08-11T16:41:23;27.00;99.80
20831;DHT22;10576;53.556;9.868;2022-08-11T16:44:09;27.00;99.80
20831;DHT22;10576;53.556;9.868;2022-08-11T16:46:57;26.90;99.80
20831;DHT22;10576;53.556;9.868;2022-08-11T16:49:29;26.90;99.70
20831;DHT22;10576;53.556;9.868;2022-08-11T16:51:56;26.90;99.90
20831;DHT22;10576;53.556;9.868;2022-08-11T16:54:22;26.90;99.50
20831;DHT22;10576;53.556;9.868;2022-08-11T16:56:52;27.00;99.50
20831;DHT22;10576;53.556;9.868;2022-08-11T16:59:36;26.90;99.80
20831;DHT22;10576;53.556;9.868;2022-08-11T17:02:08;26.80;99.90
20831;DHT22;10576;53.556;9.868;2022-08-11T17:04:46;26.80;99.50
20831;DHT22;10576;53.556;9.868;2022-08-11T17:07:33;26.70;99.90
20831;DHT22;10576;53.556;9.868;2022-08-11T17:10:31;26.70;99.70
20831;DHT22;10576;53.556;9.868;2022-08-11T17:13:19;26.70;99.90
20831;DHT22;10576;53.556;9.868;2022-08-11T17:15:48;26.60;99.90
20831;DHT22;10576;53.556;9.868;2022-08-11T17:21:20;26.50;99.90
20831;DHT22;10576;53.556;9.868;2022-08-11T17:23:53;26.50;99.90
20831;DHT22;10576;53.556;9.868;2022-08-11T17:26:42;26.30;99.90
20831;DHT22;10576;53.556;9.868;2022-08-11T17:32:01;26.20;99.90
20831;DHT22;10576;53.556;9.868;2022-08-11T17:34:48;26.20;99.90
20831;DHT22;10576;53.556;9.868;2022-08-11T17:37:34;26.20;99.90
20831;DHT22;10576;53.556;9.868;2022-08-11T17:40:05;26.10;99.90
20831;DHT22;10576;53.556;9.868;2022-08-11T17:42:32;26.10;99.90
20831;DHT22;10576;53.556;9.868;2022-08-11T17:45:17;26.00;99.90
20831;DHT22;10576;53.556;9.868;2022-08-11T17:48:03;25.90;99.90
20831;DHT22;10576;53.556;9.868;2022-08-11T17:50:53;25.80;99.90
20831;DHT22;10576;53.556;9.868;2022-08-11T17:53:20;25.70;99.90
20831;DHT22;10576;53.556;9.868;2022-08-11T17:56:05;25.60;99.90
20831;DHT22;10576;53.556;9.868;2022-08-11T17:58:51;25.50;99.90
20831;DHT22;10576;53.556;9.868;2022-08-11T18:01:38;25.50;99.90
20831;DHT22;10576;53.556;9.868;2022-08-11T18:04:05;25.40;99.90
20831;DHT22;10576;53.556;9.868;2022-08-11T18:06:32;25.30;99.90
20831;DHT22;10576;53.556;9.868;2022-08-11T18:09:00;25.20;99.90
20831;DHT22;10576;53.556;9.868;2022-08-11T18:11:46;25.10;99.90
20831;DHT22;10576;53.556;9.868;2022-08-11T18:14:32;25.10;99.90
20831;DHT22;10576;53.556;9.868;2022-08-11T18:17:19;25.00;99.90
20831;DHT22;10576;53.556;9.868;2022-08-11T18:20:03;24.90;99.90
20831;DHT22;10576;53.556;9.868;2022-08-11T18:22:48;24.80;99.90
20831;DHT22;10576;53.556;9.868;2022-08-11T18:25:39;24.80;99.90
20831;DHT22;10576;53.556;9.868;2022-08-11T18:28:32;24.70;99.90
20831;DHT22;10576;53.556;9.868;2022-08-11T18:31:20;24.70;99.90
20831;DHT22;10576;53.556;9.868;2022-08-11T18:34:09;24.60;99.90
20831;DHT22;10576;53.556;9.868;2022-08-11T18:37:03;24.50;99.90
20831;DHT22;10576;53.556;9.868;2022-08-11T18:39:55;24.50;99.90
20831;DHT22;10576;53.556;9.868;2022-08-11T18:42:42;24.40;99.90
20831;DHT22;10576;53.556;9.868;2022-08-11T18:45:27;24.30;99.90
20831;DHT22;10576;53.556;9.868;2022-08-11T18:48:16;24.30;99.90
20831;DHT22;10576;53.556;9.868;2022-08-11T18:51:03;24.20;99.90
20831;DHT22;10576;53.556;9.868;2022-08-11T18:53:52;24.10;99.90
20831;DHT22;10576;53.556;9.868;2022-08-11T18:56:37;24.00;99.90
20831;DHT22;10576;53.556;9.868;2022-08-11T18:59:25;24.00;99.90
20831;DHT22;10576;53.556;9.868;2022-08-11T19:02:12;23.90;99.90
20831;DHT22;10576;53.556;9.868;2022-08-11T19:04:58;23.90;99.90
20831;DHT22;10576;53.556;9.868;2022-08-11T19:07:45;23.90;99.90
20831;DHT22;10576;53.556;9.868;2022-08-11T19:10:31;23.80;99.90
20831;DHT22;10576;53.556;9.868;2022-08-11T19:13:16;23.70;99.90
20831;DHT22;10576;53.556;9.868;2022-08-11T19:16:03;23.50;99.90
20831;DHT22;10576;53.556;9.868;2022-08-11T19:18:49;23.40;99.90
20831;DHT22;10576;53.556;9.868;2022-08-11T19:21:36;23.30;99.90
20831;DHT22;10576;53.556;9.868;2022-08-11T19:24:22;23.30;99.90
20831;DHT22;10576;53.556;9.868;2022-08-11T19:27:08;23.20;99.90
20831;DHT22;10576;53.556;9.868;2022-08-11T19:29:54;23.00;99.90
20831;DHT22;10576;53.556;9.868;2022-08-11T19:32:39;23.00;99.90
20831;DHT22;10576;53.556;9.868;2022-08-11T19:35:24;22.90;99.90
20831;DHT22;10576;53.556;9.868;2022-08-11T19:38:10;23.00;99.90
20831;DHT22;10576;53.556;9.868;2022-08-11T19:40:56;22.90;99.90
20831;DHT22;10576;53.556;9.868;2022-08-11T19:43:43;22.70;99.90
20831;DHT22;10576;53.556;9.868;2022-08-11T19:46:30;22.70;99.90
20831;DHT22;10576;53.556;9.868;2022-08-11T19:49:15;22.60;99.90
20831;DHT22;10576;53.556;9.868;2022-08-11T19:52:00;22.40;99.90
20831;DHT22;10576;53.556;9.868;2022-08-11T19:54:45;22.40;99.90
20831;DHT22;10576;53.556;9.868;2022-08-11T19:57:31;22.40;99.90
20831;DHT22;10576;53.556;9.868;2022-08-11T20:00:19;22.30;99.90
20831;DHT22;10576;53.556;9.868;2022-08-11T20:03:06;22.20;99.90
20831;DHT22;10576;53.556;9.868;2022-08-11T20:05:52;22.20;99.90
20831;DHT22;10576;53.556;9.868;2022-08-11T20:08:41;22.10;99.90
20831;DHT22;10576;53.556;9.868;2022-08-11T20:11:30;22.00;99.90
20831;DHT22;10576;53.556;9.868;2022-08-11T20:14:16;21.90;99.90
20831;DHT22;10576;53.556;9.868;2022-08-11T20:17:02;21.80;99.90
20831;DHT22;10576;53.556;9.868;2022-08-11T20:19:47;21.70;99.90
20831;DHT22;10576;53.556;9.868;2022-08-11T20:22:32;21.60;99.90